sensor_id;sensor_type;location;lat;lon;timestamp;P1;durP1;ratioP1;P2;durP2;ratioP2
19016;SDS011;9641;51.494;6.670;2023-05-14T00:01:31;16.53;;;13.30;;
19016;SDS011;9641;51.494;6.670;2023-05-14T00:04:01;16.63;;;14.07;;
19016;SDS011;9641;51.494;6.670;2023-05-14T00:06:31;17.57;;;12.93;;
19016;SDS011;9641;51.494;6.670;2023-05-14T00:09:01;17.27;;;13.53;;
19016;SDS011;9641;51.494;6.670;2023-05-14T00:11:28;17.87;;;13.57;;
19016;SDS011;9641;51.494;6.670;2023-05-14T00:13:56;17.33;;;12.70;;
19016;SDS011;9641;51.494;6.670;2023-05-14T00:16:27;17.20;;;13.30;;
19016;SDS011;9641;51.494;6.670;2023-05-14T00:18:55;14.47;;;12.60;;
19016;SDS011;9641;51.494;6.670;2023-05-14T00:21:22;21.67;;;12.80;;
19016;SDS011;9641;51.494;6.670;2023-05-14T00:23:50;16.90;;;12.37;;
19016;SDS011;9641;51.494;6.670;2023-05-14T00:26:19;18.37;;;12.73;;
19016;SDS011;9641;51.494;6.670;2023-05-14T00:28:46;17.80;;;14.37;;
19016;SDS011;9641;51.494;6.670;2023-05-14T00:31:13;23.77;;;17.27;;
19016;SDS011;9641;51.494;6.670;2023-05-14T00:33:41;19.73;;;15.60;;
19016;SDS011;9641;51.494;6.670;2023-05-14T00:36:09;23.37;;;17.57;;
19016;SDS011;9641;51.494;6.670;2023-05-14T00:38:37;22.90;;;15.97;;
19016;SDS011;9641;51.494;6.670;2023-05-14T00:41:07;18.57;;;14.90;;
19016;SDS011;9641;51.494;6.670;2023-05-14T00:43:36;20.67;;;15.83;;
19016;SDS011;9641;51.494;6.670;2023-05-14T00:46:03;18.73;;;15.33;;
19016;SDS011;9641;51.494;6.670;2023-05-14T00:48:31;21.90;;;15.47;;
19016;SDS011;9641;51.494;6.670;2023-05-14T00:50:59;17.57;;;14.67;;
19016;SDS011;9641;51.494;6.670;2023-05-14T00:53:26;20.70;;;15.80;;
19016;SDS011;9641;51.494;6.670;2023-05-14T00:55:53;21.60;;;15.50;;
19016;SDS011;9641;51.494;6.670;2023-05-14T00:58:21;21.53;;;15.37;;
19016;SDS011;9641;51.494;6.670;2023-05-14T01:00:53;19.23;;;15.43;;
19016;SDS011;9641;51.494;6.670;2023-05-14T01:03:20;18.53;;;14.50;;
19016;SDS011;9641;51.494;6.670;2023-05-14T01:05:52;20.87;;;14.80;;
19016;SDS011;9641;51.494;6.670;2023-05-14T01:08:28;22.60;;;15.90;;
19016;SDS011;9641;51.494;6.670;2023-05-14T01:11:02;20.17;;;15.93;;
19016;SDS011;9641;51.494;6.670;2023-05-14T01:13:36;21.97;;;15.83;;
19016;SDS011;9641;51.494;6.670;2023-05-14T01:16:11;20.03;;;16.43;;
19016;SDS011;9641;51.494;6.670;2023-05-14T01:18:39;21.97;;;16.97;;
19016;SDS011;9641;51.494;6.670;2023-05-14T01:21:32;22.57;;;17.80;;
19016;SDS011;9641;51.494;6.670;2023-05-14T01:24:01;23.50;;;16.60;;
19016;SDS011;9641;51.494;6.670;2023-05-14T01:26:28;20.37;;;16.17;;
19016;SDS011;9641;51.494;6.670;2023-05-14T01:28:58;24.33;;;17.50;;
19016;SDS011;9641;51.494;6.670;2023-05-14T01:31:31;21.53;;;17.30;;
19016;SDS011;9641;51.494;6.670;2023-05-14T01:34:02;20.70;;;16.73;;
19016;SDS011;9641;51.494;6.670;2023-05-14T01:36:32;22.77;;;17.13;;
19016;SDS011;9641;51.494;6.670;2023-05-14T01:39:00;21.47;;;16.37;;
19016;SDS011;9641;51.494;6.670;2023-05-14T01:41:28;20.37;;;17.00;;
19016;SDS011;9641;51.494;6.670;2023-05-14T01:43:59;24.97;;;17.03;;
19016;SDS011;9641;51.494;6.670;2023-05-14T01:46:29;19.00;;;16.27;;
19016;SDS011;9641;51.494;6.670;2023-05-14T01:48:57;19.50;;;15.80;;
19016;SDS011;9641;51.494;6.670;2023-05-14T01:51:29;19.67;;;15.73;;
19016;SDS011;9641;51.494;6.670;2023-05-14T01:53:59;19.83;;;16.07;;
19016;SDS011;9641;51.494;6.670;2023-05-14T01:56:26;21.57;;;16.83;;
19016;SDS011;9641;51.494;6.670;2023-05-14T01:58:55;22.70;;;16.73;;
19016;SDS011;9641;51.494;6.670;2023-05-14T02:01:23;20.80;;;16.57;;
19016;SDS011;9641;51.494;6.670;2023-05-14T02:03:52;19.80;;;16.43;;
19016;SDS011;9641;51.494;6.670;2023-05-14T02:06:20;21.97;;;16.90;;
19016;SDS011;9641;51.494;6.670;2023-05-14T02:08:47;20.63;;;17.00;;
19016;SDS011;9641;51.494;6.670;2023-05-14T02:11:16;25.27;;;17.57;;
19016;SDS011;9641;51.494;6.670;2023-05-14T02:13:43;23.30;;;18.00;;
19016;SDS011;9641;51.494;6.670;2023-05-14T02:16:11;23.83;;;17.57;;
19016;SDS011;9641;51.494;6.670;2023-05-14T02:18:38;19.67;;;16.33;;
19016;SDS011;9641;51.494;6.670;2023-05-14T02:21:05;23.47;;;18.40;;
19016;SDS011;9641;51.494;6.670;2023-05-14T02:23:32;25.90;;;18.53;;
19016;SDS011;9641;51.494;6.670;2023-05-14T02:26:03;23.50;;;18.17;;
19016;SDS011;9641;51.494;6.670;2023-05-14T02:28:31;20.37;;;16.67;;
19016;SDS011;9641;51.494;6.670;2023-05-14T02:30:59;24.00;;;17.10;;
19016;SDS011;9641;51.494;6.670;2023-05-14T02:33:26;23.63;;;18.13;;
19016;SDS011;9641;51.494;6.670;2023-05-14T02:35:53;21.87;;;17.40;;
19016;SDS011;9641;51.494;6.670;2023-05-14T02:38:21;22.47;;;18.30;;
19016;SDS011;9641;51.494;6.670;2023-05-14T02:40:48;24.70;;;18.53;;
19016;SDS011;9641;51.494;6.670;2023-05-14T02:43:15;27.40;;;19.10;;
19016;SDS011;9641;51.494;6.670;2023-05-14T02:45:48;26.43;;;19.13;;
19016;SDS011;9641;51.494;6.670;2023-05-14T02:48:15;28.87;;;21.23;;
19016;SDS011;9641;51.494;6.670;2023-05-14T02:50:42;25.47;;;19.83;;
19016;SDS011;9641;51.494;6.670;2023-05-14T02:53:13;25.77;;;18.70;;
19016;SDS011;9641;51.494;6.670;2023-05-14T02:55:40;25.60;;;19.70;;
19016;SDS011;9641;51.494;6.670;2023-05-14T02:58:08;28.60;;;20.10;;
19016;SDS011;9641;51.494;6.670;2023-05-14T03:00:35;28.10;;;20.20;;
19016;SDS011;9641;51.494;6.670;2023-05-14T03:03:06;26.60;;;19.03;;
19016;SDS011;9641;51.494;6.670;2023-05-14T03:05:33;23.67;;;18.90;;
19016;SDS011;9641;51.494;6.670;2023-05-14T03:08:00;26.83;;;21.00;;
19016;SDS011;9641;51.494;6.670;2023-05-14T03:10:29;28.83;;;19.87;;
19016;SDS011;9641;51.494;6.670;2023-05-14T03:12:57;26.50;;;20.30;;
19016;SDS011;9641;51.494;6.670;2023-05-14T03:15:24;29.90;;;22.17;;
19016;SDS011;9641;51.494;6.670;2023-05-14T03:17:51;31.63;;;21.20;;
19016;SDS011;9641;51.494;6.670;2023-05-14T03:20:21;29.47;;;19.83;;
19016;SDS011;9641;51.494;6.670;2023-05-14T03:22:51;25.87;;;19.87;;
19016;SDS011;9641;51.494;6.670;2023-05-14T03:25:18;28.33;;;20.27;;
19016;SDS011;9641;51.494;6.670;2023-05-14T03:27:45;28.13;;;19.67;;
19016;SDS011;9641;51.494;6.670;2023-05-14T03:30:14;24.40;;;18.93;;
19016;SDS011;9641;51.494;6.670;2023-05-14T03:32:41;24.97;;;19.77;;
19016;SDS011;9641;51.494;6.670;2023-05-14T03:35:09;27.03;;;19.20;;
19016;SDS011;9641;51.494;6.670;2023-05-14T03:37:38;27.10;;;19.47;;
19016;SDS011;9641;51.494;6.670;2023-05-14T03:40:09;24.97;;;18.70;;
19016;SDS011;9641;51.494;6.670;2023-05-14T03:42:36;22.97;;;19.53;;
19016;SDS011;9641;51.494;6.670;2023-05-14T03:45:04;25.13;;;19.23;;
19016;SDS011;9641;51.494;6.670;2023-05-14T03:47:33;26.30;;;19.73;;
19016;SDS011;9641;51.494;6.670;2023-05-14T03:50:00;27.40;;;20.20;;
19016;SDS011;9641;51.494;6.670;2023-05-14T03:52:28;28.10;;;21.13;;
19016;SDS011;9641;51.494;6.670;2023-05-14T03:54:56;29.00;;;21.50;;
19016;SDS011;9641;51.494;6.670;2023-05-14T03:57:27;27.03;;;20.87;;
19016;SDS011;9641;51.494;6.670;2023-05-14T03:59:54;27.03;;;21.37;;
19016;SDS011;9641;51.494;6.670;2023-05-14T04:02:25;28.87;;;21.40;;
19016;SDS011;9641;51.494;6.670;2023-05-14T04:04:54;34.17;;;22.57;;
19016;SDS011;9641;51.494;6.670;2023-05-14T04:07:26;31.07;;;23.50;;
19016;SDS011;9641;51.494;6.670;2023-05-14T04:09:54;28.47;;;21.83;;
19016;SDS011;9641;51.494;6.670;2023-05-14T04:12:25;33.13;;;23.00;;
19016;SDS011;9641;51.494;6.670;2023-05-14T04:14:53;31.00;;;23.73;;
19016;SDS011;9641;51.494;6.670;2023-05-14T04:17:21;32.00;;;22.13;;
19016;SDS011;9641;51.494;6.670;2023-05-14T04:19:48;30.10;;;22.10;;
19016;SDS011;9641;51.494;6.670;2023-05-14T04:22:15;29.80;;;20.90;;
19016;SDS011;9641;51.494;6.670;2023-05-14T04:24:42;29.50;;;22.17;;
19016;SDS011;9641;51.494;6.670;2023-05-14T04:27:13;28.93;;;20.83;;
19016;SDS011;9641;51.494;6.670;2023-05-14T04:29:45;30.50;;;21.43;;
19016;SDS011;9641;51.494;6.670;2023-05-14T04:32:12;28.13;;;20.90;;
19016;SDS011;9641;51.494;6.670;2023-05-14T04:34:42;24.43;;;19.20;;
19016;SDS011;9641;51.494;6.670;2023-05-14T04:37:11;26.70;;;18.67;;
19016;SDS011;9641;51.494;6.670;2023-05-14T04:39:41;29.27;;;20.87;;
19016;SDS011;9641;51.494;6.670;2023-05-14T04:42:09;27.40;;;20.57;;
19016;SDS011;9641;51.494;6.670;2023-05-14T04:44:38;24.67;;;19.00;;
19016;SDS011;9641;51.494;6.670;2023-05-14T04:47:05;24.00;;;20.00;;
19016;SDS011;9641;51.494;6.670;2023-05-14T04:49:32;31.23;;;20.37;;
19016;SDS011;9641;51.494;6.670;2023-05-14T04:52:00;28.30;;;20.67;;
19016;SDS011;9641;51.494;6.670;2023-05-14T04:54:28;27.20;;;19.80;;
19016;SDS011;9641;51.494;6.670;2023-05-14T04:56:56;23.43;;;19.03;;
19016;SDS011;9641;51.494;6.670;2023-05-14T04:59:27;25.87;;;19.97;;
19016;SDS011;9641;51.494;6.670;2023-05-14T05:01:56;26.47;;;19.33;;
19016;SDS011;9641;51.494;6.670;2023-05-14T05:04:24;26.73;;;19.40;;
19016;SDS011;9641;51.494;6.670;2023-05-14T05:06:52;25.80;;;19.07;;
19016;SDS011;9641;51.494;6.670;2023-05-14T05:09:20;27.23;;;19.67;;
19016;SDS011;9641;51.494;6.670;2023-05-14T05:11:51;29.60;;;19.93;;
19016;SDS011;9641;51.494;6.670;2023-05-14T05:14:26;29.43;;;20.43;;
19016;SDS011;9641;51.494;6.670;2023-05-14T05:16:54;25.90;;;19.40;;
19016;SDS011;9641;51.494;6.670;2023-05-14T05:19:23;24.33;;;19.63;;
19016;SDS011;9641;51.494;6.670;2023-05-14T05:21:51;27.63;;;20.53;;
19016;SDS011;9641;51.494;6.670;2023-05-14T05:24:19;28.50;;;21.43;;
19016;SDS011;9641;51.494;6.670;2023-05-14T05:26:46;22.97;;;19.83;;
19016;SDS011;9641;51.494;6.670;2023-05-14T05:29:14;24.57;;;19.70;;
19016;SDS011;9641;51.494;6.670;2023-05-14T05:31:44;25.30;;;19.53;;
19016;SDS011;9641;51.494;6.670;2023-05-14T05:34:12;27.97;;;19.40;;
19016;SDS011;9641;51.494;6.670;2023-05-14T05:36:40;24.23;;;18.93;;
19016;SDS011;9641;51.494;6.670;2023-05-14T05:39:09;25.83;;;19.73;;
19016;SDS011;9641;51.494;6.670;2023-05-14T05:41:37;25.27;;;18.73;;
19016;SDS011;9641;51.494;6.670;2023-05-14T05:44:16;22.83;;;18.70;;
19016;SDS011;9641;51.494;6.670;2023-05-14T05:46:43;25.47;;;19.70;;
19016;SDS011;9641;51.494;6.670;2023-05-14T05:49:12;23.33;;;17.67;;
19016;SDS011;9641;51.494;6.670;2023-05-14T05:51:41;20.43;;;17.40;;
19016;SDS011;9641;51.494;6.670;2023-05-14T05:54:10;21.17;;;16.10;;
19016;SDS011;9641;51.494;6.670;2023-05-14T05:56:37;20.97;;;16.60;;
19016;SDS011;9641;51.494;6.670;2023-05-14T05:59:07;22.13;;;17.00;;
19016;SDS011;9641;51.494;6.670;2023-05-14T06:01:37;21.90;;;16.30;;
19016;SDS011;9641;51.494;6.670;2023-05-14T06:04:09;21.67;;;16.43;;
19016;SDS011;9641;51.494;6.670;2023-05-14T06:06:36;20.57;;;15.47;;
19016;SDS011;9641;51.494;6.670;2023-05-14T06:09:12;18.10;;;14.97;;
19016;SDS011;9641;51.494;6.670;2023-05-14T06:11:40;21.23;;;16.00;;
19016;SDS011;9641;51.494;6.670;2023-05-14T06:14:09;21.23;;;15.83;;
19016;SDS011;9641;51.494;6.670;2023-05-14T06:16:36;19.97;;;16.20;;
19016;SDS011;9641;51.494;6.670;2023-05-14T06:19:11;23.13;;;16.90;;
19016;SDS011;9641;51.494;6.670;2023-05-14T06:21:42;23.00;;;17.33;;
19016;SDS011;9641;51.494;6.670;2023-05-14T06:24:12;21.43;;;16.47;;
19016;SDS011;9641;51.494;6.670;2023-05-14T06:26:40;20.20;;;16.67;;
19016;SDS011;9641;51.494;6.670;2023-05-14T06:29:23;21.23;;;17.00;;
19016;SDS011;9641;51.494;6.670;2023-05-14T06:31:56;22.10;;;16.73;;
19016;SDS011;9641;51.494;6.670;2023-05-14T06:34:40;20.10;;;16.50;;
19016;SDS011;9641;51.494;6.670;2023-05-14T06:37:21;20.93;;;17.50;;
19016;SDS011;9641;51.494;6.670;2023-05-14T06:42:38;18.93;;;16.07;;
19016;SDS011;9641;51.494;6.670;2023-05-14T06:45:06;21.87;;;18.23;;
19016;SDS011;9641;51.494;6.670;2023-05-14T06:47:34;21.80;;;17.60;;
19016;SDS011;9641;51.494;6.670;2023-05-14T06:50:01;24.00;;;18.43;;
19016;SDS011;9641;51.494;6.670;2023-05-14T06:52:31;25.57;;;18.30;;
19016;SDS011;9641;51.494;6.670;2023-05-14T06:54:58;22.53;;;17.23;;
19016;SDS011;9641;51.494;6.670;2023-05-14T06:57:27;20.77;;;18.17;;
19016;SDS011;9641;51.494;6.670;2023-05-14T06:59:55;22.53;;;18.13;;
19016;SDS011;9641;51.494;6.670;2023-05-14T07:02:22;26.83;;;19.43;;
19016;SDS011;9641;51.494;6.670;2023-05-14T07:04:50;26.40;;;18.10;;
19016;SDS011;9641;51.494;6.670;2023-05-14T07:07:17;23.07;;;19.37;;
19016;SDS011;9641;51.494;6.670;2023-05-14T07:09:45;21.60;;;17.20;;
19016;SDS011;9641;51.494;6.670;2023-05-14T07:12:13;22.10;;;17.63;;
19016;SDS011;9641;51.494;6.670;2023-05-14T07:14:42;23.83;;;17.27;;
19016;SDS011;9641;51.494;6.670;2023-05-14T07:17:11;19.77;;;15.50;;
19016;SDS011;9641;51.494;6.670;2023-05-14T07:19:38;26.37;;;16.33;;
19016;SDS011;9641;51.494;6.670;2023-05-14T07:22:06;20.90;;;16.57;;
19016;SDS011;9641;51.494;6.670;2023-05-14T07:24:33;21.43;;;16.13;;
19016;SDS011;9641;51.494;6.670;2023-05-14T07:27:01;19.10;;;15.67;;
19016;SDS011;9641;51.494;6.670;2023-05-14T07:29:30;19.77;;;15.53;;
19016;SDS011;9641;51.494;6.670;2023-05-14T07:32:03;20.20;;;15.27;;
19016;SDS011;9641;51.494;6.670;2023-05-14T07:34:43;20.40;;;15.93;;
19016;SDS011;9641;51.494;6.670;2023-05-14T07:37:49;19.37;;;14.87;;
19016;SDS011;9641;51.494;6.670;2023-05-14T07:40:29;20.10;;;16.20;;
19016;SDS011;9641;51.494;6.670;2023-05-14T07:42:58;20.83;;;15.77;;
19016;SDS011;9641;51.494;6.670;2023-05-14T07:45:52;18.17;;;15.07;;
19016;SDS011;9641;51.494;6.670;2023-05-14T07:48:28;17.53;;;14.30;;
19016;SDS011;9641;51.494;6.670;2023-05-14T07:50:55;16.97;;;14.23;;
19016;SDS011;9641;51.494;6.670;2023-05-14T07:53:37;20.70;;;15.13;;
19016;SDS011;9641;51.494;6.670;2023-05-14T07:56:17;18.03;;;13.87;;
19016;SDS011;9641;51.494;6.670;2023-05-14T07:58:44;16.77;;;13.30;;
19016;SDS011;9641;51.494;6.670;2023-05-14T08:01:13;16.03;;;13.93;;
19016;SDS011;9641;51.494;6.670;2023-05-14T08:03:41;15.83;;;13.40;;
19016;SDS011;9641;51.494;6.670;2023-05-14T08:06:10;20.30;;;12.50;;
19016;SDS011;9641;51.494;6.670;2023-05-14T08:08:38;16.13;;;13.83;;
19016;SDS011;9641;51.494;6.670;2023-05-14T08:11:05;17.20;;;13.23;;
19016;SDS011;9641;51.494;6.670;2023-05-14T08:13:35;16.53;;;12.43;;
19016;SDS011;9641;51.494;6.670;2023-05-14T08:16:03;15.73;;;13.07;;
19016;SDS011;9641;51.494;6.670;2023-05-14T08:18:35;15.87;;;12.43;;
19016;SDS011;9641;51.494;6.670;2023-05-14T08:21:16;13.33;;;11.53;;
19016;SDS011;9641;51.494;6.670;2023-05-14T08:23:44;15.33;;;13.47;;
19016;SDS011;9641;51.494;6.670;2023-05-14T08:29:54;21.83;;;13.80;;
19016;SDS011;9641;51.494;6.670;2023-05-14T08:32:21;20.83;;;13.97;;
19016;SDS011;9641;51.494;6.670;2023-05-14T08:34:48;19.07;;;13.20;;
19016;SDS011;9641;51.494;6.670;2023-05-14T08:37:17;15.20;;;12.43;;
19016;SDS011;9641;51.494;6.670;2023-05-14T08:39:43;13.57;;;11.20;;
19016;SDS011;9641;51.494;6.670;2023-05-14T08:42:11;17.63;;;11.50;;
19016;SDS011;9641;51.494;6.670;2023-05-14T08:44:42;18.17;;;12.97;;
19016;SDS011;9641;51.494;6.670;2023-05-14T08:47:25;14.37;;;11.57;;
19016;SDS011;9641;51.494;6.670;2023-05-14T08:49:58;19.93;;;12.37;;
19016;SDS011;9641;51.494;6.670;2023-05-14T08:52:29;15.33;;;11.40;;
19016;SDS011;9641;51.494;6.670;2023-05-14T08:54:58;15.73;;;12.30;;
19016;SDS011;9641;51.494;6.670;2023-05-14T08:57:28;19.90;;;12.50;;
19016;SDS011;9641;51.494;6.670;2023-05-14T08:59:57;17.53;;;11.73;;
19016;SDS011;9641;51.494;6.670;2023-05-14T09:02:26;17.30;;;11.27;;
19016;SDS011;9641;51.494;6.670;2023-05-14T09:04:55;13.93;;;10.70;;
19016;SDS011;9641;51.494;6.670;2023-05-14T09:07:23;13.23;;;10.13;;
19016;SDS011;9641;51.494;6.670;2023-05-14T09:09:52;14.30;;;9.67;;
19016;SDS011;9641;51.494;6.670;2023-05-14T09:12:20;14.30;;;8.70;;
19016;SDS011;9641;51.494;6.670;2023-05-14T09:14:48;10.40;;;9.20;;
19016;SDS011;9641;51.494;6.670;2023-05-14T09:17:15;10.80;;;8.50;;
19016;SDS011;9641;51.494;6.670;2023-05-14T09:19:42;8.63;;;7.47;;
19016;SDS011;9641;51.494;6.670;2023-05-14T09:22:12;7.07;;;5.67;;
19016;SDS011;9641;51.494;6.670;2023-05-14T09:24:40;6.83;;;5.90;;
19016;SDS011;9641;51.494;6.670;2023-05-14T09:27:08;8.27;;;7.43;;
19016;SDS011;9641;51.494;6.670;2023-05-14T09:29:42;9.60;;;7.63;;
19016;SDS011;9641;51.494;6.670;2023-05-14T09:32:09;10.30;;;8.73;;
19016;SDS011;9641;51.494;6.670;2023-05-14T09:34:36;11.07;;;9.00;;
19016;SDS011;9641;51.494;6.670;2023-05-14T09:37:04;8.68;;;7.57;;
19016;SDS011;9641;51.494;6.670;2023-05-14T09:39:33;10.50;;;8.70;;
19016;SDS011;9641;51.494;6.670;2023-05-14T09:42:01;10.07;;;9.07;;
19016;SDS011;9641;51.494;6.670;2023-05-14T09:44:30;15.20;;;9.35;;
19016;SDS011;9641;51.494;6.670;2023-05-14T09:46:57;13.27;;;9.23;;
19016;SDS011;9641;51.494;6.670;2023-05-14T09:49:24;16.13;;;10.07;;
19016;SDS011;9641;51.494;6.670;2023-05-14T09:51:51;11.07;;;9.82;;
19016;SDS011;9641;51.494;6.670;2023-05-14T09:54:18;9.55;;;8.65;;
19016;SDS011;9641;51.494;6.670;2023-05-14T09:56:44;12.60;;;10.30;;
19016;SDS011;9641;51.494;6.670;2023-05-14T09:59:12;11.18;;;9.68;;
19016;SDS011;9641;51.494;6.670;2023-05-14T10:01:41;13.20;;;9.13;;
19016;SDS011;9641;51.494;6.670;2023-05-14T10:04:08;16.00;;;9.00;;
19016;SDS011;9641;51.494;6.670;2023-05-14T10:06:37;9.90;;;8.43;;
19016;SDS011;9641;51.494;6.670;2023-05-14T10:09:07;7.70;;;6.55;;
19016;SDS011;9641;51.494;6.670;2023-05-14T10:11:37;5.88;;;5.30;;
19016;SDS011;9641;51.494;6.670;2023-05-14T10:14:07;8.23;;;6.93;;
19016;SDS011;9641;51.494;6.670;2023-05-14T10:16:49;7.15;;;4.25;;
19016;SDS011;9641;51.494;6.670;2023-05-14T10:19:19;6.03;;;4.05;;
19016;SDS011;9641;51.494;6.670;2023-05-14T10:21:51;5.03;;;3.63;;
19016;SDS011;9641;51.494;6.670;2023-05-14T10:24:20;4.80;;;3.45;;
19016;SDS011;9641;51.494;6.670;2023-05-14T10:26:47;3.20;;;2.85;;
19016;SDS011;9641;51.494;6.670;2023-05-14T10:29:15;4.13;;;3.10;;
19016;SDS011;9641;51.494;6.670;2023-05-14T10:37:53;38.95;;;4.35;;
19016;SDS011;9641;51.494;6.670;2023-05-14T10:40:23;18.50;;;3.53;;
19016;SDS011;9641;51.494;6.670;2023-05-14T10:42:50;6.65;;;3.15;;
19016;SDS011;9641;51.494;6.670;2023-05-14T10:45:18;4.97;;;4.00;;
19016;SDS011;9641;51.494;6.670;2023-05-14T10:47:45;4.65;;;2.53;;
19016;SDS011;9641;51.494;6.670;2023-05-14T10:50:14;3.58;;;3.22;;
19016;SDS011;9641;51.494;6.670;2023-05-14T10:52:43;4.38;;;2.60;;
19016;SDS011;9641;51.494;6.670;2023-05-14T10:55:31;3.25;;;2.95;;
19016;SDS011;9641;51.494;6.670;2023-05-14T10:57:59;7.65;;;3.05;;
19016;SDS011;9641;51.494;6.670;2023-05-14T11:00:32;3.65;;;2.70;;
19016;SDS011;9641;51.494;6.670;2023-05-14T11:03:02;4.80;;;2.78;;
19016;SDS011;9641;51.494;6.670;2023-05-14T11:05:29;4.38;;;3.03;;
19016;SDS011;9641;51.494;6.670;2023-05-14T11:08:12;4.28;;;2.83;;
19016;SDS011;9641;51.494;6.670;2023-05-14T11:10:41;4.75;;;2.70;;
19016;SDS011;9641;51.494;6.670;2023-05-14T11:13:11;4.05;;;2.95;;
19016;SDS011;9641;51.494;6.670;2023-05-14T11:15:38;4.22;;;2.80;;
19016;SDS011;9641;51.494;6.670;2023-05-14T11:18:11;4.55;;;2.53;;
19016;SDS011;9641;51.494;6.670;2023-05-14T11:20:38;5.40;;;2.78;;
19016;SDS011;9641;51.494;6.670;2023-05-14T11:23:05;6.88;;;3.22;;
19016;SDS011;9641;51.494;6.670;2023-05-14T11:25:32;3.53;;;3.20;;
19016;SDS011;9641;51.494;6.670;2023-05-14T11:28:00;3.15;;;2.50;;
19016;SDS011;9641;51.494;6.670;2023-05-14T11:30:27;5.03;;;2.17;;
19016;SDS011;9641;51.494;6.670;2023-05-14T11:32:56;4.82;;;2.30;;
19016;SDS011;9641;51.494;6.670;2023-05-14T11:35:23;5.22;;;2.10;;
19016;SDS011;9641;51.494;6.670;2023-05-14T11:37:51;3.40;;;2.30;;
19016;SDS011;9641;51.494;6.670;2023-05-14T11:40:18;4.93;;;2.92;;
19016;SDS011;9641;51.494;6.670;2023-05-14T11:42:45;4.65;;;2.45;;
19016;SDS011;9641;51.494;6.670;2023-05-14T11:45:22;3.40;;;3.10;;
19016;SDS011;9641;51.494;6.670;2023-05-14T11:47:51;5.13;;;3.17;;
19016;SDS011;9641;51.494;6.670;2023-05-14T11:50:18;3.20;;;2.97;;
19016;SDS011;9641;51.494;6.670;2023-05-14T11:52:46;3.85;;;3.15;;
19016;SDS011;9641;51.494;6.670;2023-05-14T11:55:15;4.05;;;3.20;;
19016;SDS011;9641;51.494;6.670;2023-05-14T11:57:42;3.72;;;3.30;;
19016;SDS011;9641;51.494;6.670;2023-05-14T12:00:09;5.20;;;3.03;;
19016;SDS011;9641;51.494;6.670;2023-05-14T12:02:47;6.07;;;2.78;;
19016;SDS011;9641;51.494;6.670;2023-05-14T12:05:14;2.60;;;2.45;;
19016;SDS011;9641;51.494;6.670;2023-05-14T12:07:45;2.58;;;2.38;;
19016;SDS011;9641;51.494;6.670;2023-05-14T12:10:13;4.05;;;2.78;;
19016;SDS011;9641;51.494;6.670;2023-05-14T12:12:43;2.60;;;2.40;;
19016;SDS011;9641;51.494;6.670;2023-05-14T12:15:11;5.30;;;2.88;;
19016;SDS011;9641;51.494;6.670;2023-05-14T12:17:39;2.83;;;2.30;;
19016;SDS011;9641;51.494;6.670;2023-05-14T12:20:08;3.88;;;2.25;;
19016;SDS011;9641;51.494;6.670;2023-05-14T12:22:37;2.20;;;2.10;;
19016;SDS011;9641;51.494;6.670;2023-05-14T12:25:09;5.55;;;2.55;;
19016;SDS011;9641;51.494;6.670;2023-05-14T12:27:38;2.60;;;2.15;;
19016;SDS011;9641;51.494;6.670;2023-05-14T12:30:06;3.85;;;2.17;;
19016;SDS011;9641;51.494;6.670;2023-05-14T12:32:33;2.38;;;2.13;;
19016;SDS011;9641;51.494;6.670;2023-05-14T12:35:04;52.47;;;4.88;;
19016;SDS011;9641;51.494;6.670;2023-05-14T12:37:33;32.60;;;3.83;;
19016;SDS011;9641;51.494;6.670;2023-05-14T12:40:02;3.30;;;2.15;;
19016;SDS011;9641;51.494;6.670;2023-05-14T12:42:33;6.35;;;2.08;;
19016;SDS011;9641;51.494;6.670;2023-05-14T12:44:59;3.78;;;1.90;;
19016;SDS011;9641;51.494;6.670;2023-05-14T12:47:29;2.10;;;1.90;;
19016;SDS011;9641;51.494;6.670;2023-05-14T12:49:56;3.20;;;2.00;;
19016;SDS011;9641;51.494;6.670;2023-05-14T12:52:23;3.05;;;1.88;;
19016;SDS011;9641;51.494;6.670;2023-05-14T12:54:51;4.45;;;2.00;;
19016;SDS011;9641;51.494;6.670;2023-05-14T12:57:18;3.38;;;1.58;;
19016;SDS011;9641;51.494;6.670;2023-05-14T12:59:45;2.05;;;1.85;;
19016;SDS011;9641;51.494;6.670;2023-05-14T13:02:12;5.07;;;1.75;;
19016;SDS011;9641;51.494;6.670;2023-05-14T13:04:39;2.58;;;1.80;;
19016;SDS011;9641;51.494;6.670;2023-05-14T13:07:07;3.55;;;1.80;;
19016;SDS011;9641;51.494;6.670;2023-05-14T13:09:33;2.88;;;1.60;;
19016;SDS011;9641;51.494;6.670;2023-05-14T13:12:02;2.90;;;1.80;;
19016;SDS011;9641;51.494;6.670;2023-05-14T13:14:29;2.13;;;1.60;;
19016;SDS011;9641;51.494;6.670;2023-05-14T13:16:56;2.00;;;1.80;;
19016;SDS011;9641;51.494;6.670;2023-05-14T13:19:23;3.83;;;1.73;;
19016;SDS011;9641;51.494;6.670;2023-05-14T13:21:50;4.90;;;2.10;;
19016;SDS011;9641;51.494;6.670;2023-05-14T13:24:16;2.72;;;2.03;;
19016;SDS011;9641;51.494;6.670;2023-05-14T13:26:43;3.45;;;1.73;;
19016;SDS011;9641;51.494;6.670;2023-05-14T13:29:11;2.15;;;1.70;;
19016;SDS011;9641;51.494;6.670;2023-05-14T13:31:38;1.80;;;1.70;;
19016;SDS011;9641;51.494;6.670;2023-05-14T13:34:05;4.03;;;1.90;;
19016;SDS011;9641;51.494;6.670;2023-05-14T13:36:32;2.03;;;1.75;;
19016;SDS011;9641;51.494;6.670;2023-05-14T13:39:03;3.72;;;1.80;;
19016;SDS011;9641;51.494;6.670;2023-05-14T13:41:30;2.88;;;1.83;;
19016;SDS011;9641;51.494;6.670;2023-05-14T13:43:59;2.95;;;1.92;;
19016;SDS011;9641;51.494;6.670;2023-05-14T13:46:27;2.15;;;1.90;;
19016;SDS011;9641;51.494;6.670;2023-05-14T13:48:54;3.15;;;2.10;;
19016;SDS011;9641;51.494;6.670;2023-05-14T13:51:21;2.83;;;1.90;;
19016;SDS011;9641;51.494;6.670;2023-05-14T13:53:48;2.60;;;1.85;;
19016;SDS011;9641;51.494;6.670;2023-05-14T13:56:15;4.82;;;1.80;;
19016;SDS011;9641;51.494;6.670;2023-05-14T13:58:42;2.72;;;1.77;;
19016;SDS011;9641;51.494;6.670;2023-05-14T14:01:09;3.72;;;1.85;;
19016;SDS011;9641;51.494;6.670;2023-05-14T14:03:37;5.35;;;1.90;;
19016;SDS011;9641;51.494;6.670;2023-05-14T14:06:04;3.00;;;1.92;;
19016;SDS011;9641;51.494;6.670;2023-05-14T14:08:31;2.08;;;1.90;;
19016;SDS011;9641;51.494;6.670;2023-05-14T14:10:57;2.05;;;1.73;;
19016;SDS011;9641;51.494;6.670;2023-05-14T14:13:25;2.38;;;1.88;;
19016;SDS011;9641;51.494;6.670;2023-05-14T14:15:53;8.55;;;4.60;;
19016;SDS011;9641;51.494;6.670;2023-05-14T14:18:20;7.22;;;5.00;;
19016;SDS011;9641;51.494;6.670;2023-05-14T14:20:48;22.70;;;11.23;;
19016;SDS011;9641;51.494;6.670;2023-05-14T14:23:15;5.03;;;2.88;;
19016;SDS011;9641;51.494;6.670;2023-05-14T14:25:42;3.53;;;2.10;;
19016;SDS011;9641;51.494;6.670;2023-05-14T14:28:09;2.88;;;2.03;;
19016;SDS011;9641;51.494;6.670;2023-05-14T14:30:35;2.72;;;2.50;;
19016;SDS011;9641;51.494;6.670;2023-05-14T14:33:02;4.15;;;2.53;;
19016;SDS011;9641;51.494;6.670;2023-05-14T14:35:29;5.35;;;2.60;;
19016;SDS011;9641;51.494;6.670;2023-05-14T14:37:58;8.18;;;4.63;;
19016;SDS011;9641;51.494;6.670;2023-05-14T14:40:25;7.20;;;4.22;;
19016;SDS011;9641;51.494;6.670;2023-05-14T14:42:52;6.15;;;4.65;;
19016;SDS011;9641;51.494;6.670;2023-05-14T14:45:19;4.18;;;3.47;;
19016;SDS011;9641;51.494;6.670;2023-05-14T14:47:47;5.93;;;4.05;;
19016;SDS011;9641;51.494;6.670;2023-05-14T14:50:14;4.43;;;3.53;;
19016;SDS011;9641;51.494;6.670;2023-05-14T14:52:41;4.18;;;2.67;;
19016;SDS011;9641;51.494;6.670;2023-05-14T14:55:10;4.25;;;2.97;;
19016;SDS011;9641;51.494;6.670;2023-05-14T14:57:37;3.05;;;2.47;;
19016;SDS011;9641;51.494;6.670;2023-05-14T15:00:05;6.47;;;2.70;;
19016;SDS011;9641;51.494;6.670;2023-05-14T15:02:33;3.15;;;2.72;;
19016;SDS011;9641;51.494;6.670;2023-05-14T15:05:02;6.88;;;2.55;;
19016;SDS011;9641;51.494;6.670;2023-05-14T15:07:30;4.35;;;3.33;;